sensor_id;sensor_type;location;lat;lon;timestamp;P1;durP1;ratioP1;P2;durP2;ratioP2
39890;SDS011;25564;53.312;9.790;2024-01-07T00:02:18;4.90;;;2.90;;
39890;SDS011;25564;53.312;9.790;2024-01-07T00:04:50;4.40;;;2.17;;
39890;SDS011;25564;53.312;9.790;2024-01-07T00:07:21;4.27;;;1.67;;
39890;SDS011;25564;53.312;9.790;2024-01-07T00:09:53;3.20;;;1.60;;
39890;SDS011;25564;53.312;9.790;2024-01-07T00:12:25;3.90;;;2.40;;
39890;SDS011;25564;53.312;9.790;2024-01-07T00:14:56;2.40;;;1.77;;
39890;SDS011;25564;53.312;9.790;2024-01-07T00:17:27;5.43;;;2.50;;
39890;SDS011;25564;53.312;9.790;2024-01-07T00:20:00;2.60;;;1.60;;
39890;SDS011;25564;53.312;9.790;2024-01-07T00:22:32;3.97;;;1.83;;
39890;SDS011;25564;53.312;9.790;2024-01-07T00:25:03;4.17;;;2.27;;
39890;SDS011;25564;53.312;9.790;2024-01-07T00:27:35;3.77;;;2.00;;
39890;SDS011;25564;53.312;9.790;2024-01-07T00:30:06;2.93;;;1.73;;
39890;SDS011;25564;53.312;9.790;2024-01-07T00:32:38;5.97;;;2.07;;
39890;SDS011;25564;53.312;9.790;2024-01-07T00:35:09;4.13;;;1.67;;
39890;SDS011;25564;53.312;9.790;2024-01-07T00:37:40;5.10;;;2.27;;
39890;SDS011;25564;53.312;9.790;2024-01-07T00:40:12;2.50;;;1.30;;
39890;SDS011;25564;53.312;9.790;2024-01-07T00:42:43;3.77;;;2.07;;
39890;SDS011;25564;53.312;9.790;2024-01-07T00:45:15;4.57;;;1.80;;
39890;SDS011;25564;53.312;9.790;2024-01-07T00:47:47;4.10;;;1.97;;
39890;SDS011;25564;53.312;9.790;2024-01-07T00:50:18;2.30;;;1.57;;
39890;SDS011;25564;53.312;9.790;2024-01-07T00:52:50;3.27;;;1.40;;
39890;SDS011;25564;53.312;9.790;2024-01-07T00:55:22;3.00;;;1.47;;
39890;SDS011;25564;53.312;9.790;2024-01-07T00:57:54;3.63;;;1.60;;
39890;SDS011;25564;53.312;9.790;2024-01-07T01:00:26;4.00;;;1.53;;
39890;SDS011;25564;53.312;9.790;2024-01-07T01:02:58;6.77;;;1.90;;
39890;SDS011;25564;53.312;9.790;2024-01-07T01:05:30;3.97;;;2.07;;
39890;SDS011;25564;53.312;9.790;2024-01-07T01:08:01;2.70;;;1.30;;
39890;SDS011;25564;53.312;9.790;2024-01-07T01:10:33;3.63;;;1.77;;
39890;SDS011;25564;53.312;9.790;2024-01-07T01:13:04;4.30;;;1.83;;
39890;SDS011;25564;53.312;9.790;2024-01-07T01:15:35;3.60;;;1.53;;
39890;SDS011;25564;53.312;9.790;2024-01-07T01:18:07;3.17;;;1.70;;
39890;SDS011;25564;53.312;9.790;2024-01-07T01:20:40;1.97;;;1.33;;
39890;SDS011;25564;53.312;9.790;2024-01-07T01:23:11;2.70;;;1.77;;
39890;SDS011;25564;53.312;9.790;2024-01-07T01:25:42;3.27;;;1.63;;
39890;SDS011;25564;53.312;9.790;2024-01-07T01:28:14;6.07;;;1.70;;
39890;SDS011;25564;53.312;9.790;2024-01-07T01:30:45;3.00;;;1.30;;
39890;SDS011;25564;53.312;9.790;2024-01-07T01:33:17;3.30;;;1.37;;
39890;SDS011;25564;53.312;9.790;2024-01-07T01:35:48;2.67;;;1.27;;
39890;SDS011;25564;53.312;9.790;2024-01-07T01:38:20;5.47;;;1.77;;
39890;SDS011;25564;53.312;9.790;2024-01-07T01:40:52;2.23;;;1.40;;
39890;SDS011;25564;53.312;9.790;2024-01-07T01:43:24;4.40;;;1.47;;
39890;SDS011;25564;53.312;9.790;2024-01-07T01:45:56;1.50;;;1.00;;
39890;SDS011;25564;53.312;9.790;2024-01-07T01:48:28;3.57;;;1.17;;
39890;SDS011;25564;53.312;9.790;2024-01-07T01:51:01;2.37;;;1.30;;
39890;SDS011;25564;53.312;9.790;2024-01-07T01:53:33;3.03;;;1.47;;
39890;SDS011;25564;53.312;9.790;2024-01-07T01:56:05;1.70;;;1.00;;
39890;SDS011;25564;53.312;9.790;2024-01-07T01:58:36;3.63;;;1.47;;
39890;SDS011;25564;53.312;9.790;2024-01-07T02:01:08;2.23;;;1.37;;
39890;SDS011;25564;53.312;9.790;2024-01-07T02:03:39;3.20;;;1.40;;
39890;SDS011;25564;53.312;9.790;2024-01-07T02:06:12;2.97;;;1.30;;
39890;SDS011;25564;53.312;9.790;2024-01-07T02:08:43;2.27;;;1.50;;
39890;SDS011;25564;53.312;9.790;2024-01-07T02:11:19;4.67;;;1.70;;
39890;SDS011;25564;53.312;9.790;2024-01-07T02:13:52;6.03;;;2.00;;
39890;SDS011;25564;53.312;9.790;2024-01-07T02:16:23;3.63;;;1.30;;
39890;SDS011;25564;53.312;9.790;2024-01-07T02:18:55;9.07;;;1.60;;
39890;SDS011;25564;53.312;9.790;2024-01-07T02:21:27;2.63;;;1.43;;
39890;SDS011;25564;53.312;9.790;2024-01-07T02:24:03;3.03;;;1.33;;
39890;SDS011;25564;53.312;9.790;2024-01-07T02:26:35;2.30;;;1.33;;
39890;SDS011;25564;53.312;9.790;2024-01-07T02:29:06;4.40;;;1.10;;
39890;SDS011;25564;53.312;9.790;2024-01-07T02:31:38;2.67;;;1.20;;
39890;SDS011;25564;53.312;9.790;2024-01-07T02:34:09;1.53;;;1.03;;
39890;SDS011;25564;53.312;9.790;2024-01-07T02:36:41;4.30;;;1.20;;
39890;SDS011;25564;53.312;9.790;2024-01-07T02:39:13;2.37;;;1.23;;
39890;SDS011;25564;53.312;9.790;2024-01-07T02:41:44;1.03;;;0.80;;
39890;SDS011;25564;53.312;9.790;2024-01-07T02:44:16;2.80;;;1.13;;
39890;SDS011;25564;53.312;9.790;2024-01-07T02:46:51;2.33;;;1.03;;
39890;SDS011;25564;53.312;9.790;2024-01-07T02:49:22;2.20;;;1.17;;
39890;SDS011;25564;53.312;9.790;2024-01-07T02:51:54;1.63;;;0.97;;
39890;SDS011;25564;53.312;9.790;2024-01-07T02:54:26;3.30;;;1.20;;
39890;SDS011;25564;53.312;9.790;2024-01-07T02:56:57;2.80;;;1.13;;
39890;SDS011;25564;53.312;9.790;2024-01-07T02:59:29;2.77;;;1.20;;
39890;SDS011;25564;53.312;9.790;2024-01-07T03:02:00;3.30;;;1.37;;
39890;SDS011;25564;53.312;9.790;2024-01-07T03:04:32;2.37;;;1.30;;
39890;SDS011;25564;53.312;9.790;2024-01-07T03:07:03;3.03;;;1.10;;
39890;SDS011;25564;53.312;9.790;2024-01-07T03:09:35;3.83;;;1.13;;
39890;SDS011;25564;53.312;9.790;2024-01-07T03:12:06;2.93;;;1.07;;
39890;SDS011;25564;53.312;9.790;2024-01-07T03:14:38;2.50;;;0.83;;
39890;SDS011;25564;53.312;9.790;2024-01-07T03:17:11;4.37;;;1.83;;
39890;SDS011;25564;53.312;9.790;2024-01-07T03:19:43;2.53;;;1.33;;
39890;SDS011;25564;53.312;9.790;2024-01-07T03:22:15;3.17;;;1.00;;
39890;SDS011;25564;53.312;9.790;2024-01-07T03:24:46;2.27;;;1.10;;
39890;SDS011;25564;53.312;9.790;2024-01-07T03:27:18;1.87;;;1.40;;
39890;SDS011;25564;53.312;9.790;2024-01-07T03:29:50;2.87;;;1.50;;
39890;SDS011;25564;53.312;9.790;2024-01-07T03:32:26;2.83;;;1.13;;
39890;SDS011;25564;53.312;9.790;2024-01-07T03:34:58;1.73;;;0.98;;
39890;SDS011;25564;53.312;9.790;2024-01-07T03:37:29;2.13;;;1.20;;
39890;SDS011;25564;53.312;9.790;2024-01-07T03:40:01;2.73;;;1.07;;
39890;SDS011;25564;53.312;9.790;2024-01-07T03:42:32;2.73;;;1.20;;
39890;SDS011;25564;53.312;9.790;2024-01-07T03:45:04;3.03;;;1.30;;
39890;SDS011;25564;53.312;9.790;2024-01-07T03:47:36;1.80;;;0.80;;
39890;SDS011;25564;53.312;9.790;2024-01-07T03:50:07;2.37;;;1.07;;
39890;SDS011;25564;53.312;9.790;2024-01-07T03:52:39;2.23;;;1.13;;
39890;SDS011;25564;53.312;9.790;2024-01-07T03:55:10;2.47;;;1.07;;
39890;SDS011;25564;53.312;9.790;2024-01-07T03:57:42;3.07;;;1.40;;
39890;SDS011;25564;53.312;9.790;2024-01-07T04:00:14;3.07;;;1.20;;
39890;SDS011;25564;53.312;9.790;2024-01-07T04:02:46;5.77;;;1.17;;
39890;SDS011;25564;53.312;9.790;2024-01-07T04:05:18;2.20;;;1.00;;
39890;SDS011;25564;53.312;9.790;2024-01-07T04:07:49;3.03;;;1.30;;
39890;SDS011;25564;53.312;9.790;2024-01-07T04:10:20;3.93;;;1.40;;
39890;SDS011;25564;53.312;9.790;2024-01-07T04:12:52;9.27;;;1.87;;
39890;SDS011;25564;53.312;9.790;2024-01-07T04:15:23;2.37;;;1.10;;
39890;SDS011;25564;53.312;9.790;2024-01-07T04:17:55;4.47;;;1.47;;
39890;SDS011;25564;53.312;9.790;2024-01-07T04:20:26;2.40;;;1.07;;
39890;SDS011;25564;53.312;9.790;2024-01-07T04:22:58;2.83;;;1.00;;
39890;SDS011;25564;53.312;9.790;2024-01-07T04:25:29;1.07;;;0.93;;
39890;SDS011;25564;53.312;9.790;2024-01-07T04:28:01;2.63;;;1.17;;
39890;SDS011;25564;53.312;9.790;2024-01-07T04:30:32;2.20;;;0.90;;
39890;SDS011;25564;53.312;9.790;2024-01-07T04:33:04;4.50;;;1.27;;
39890;SDS011;25564;53.312;9.790;2024-01-07T04:35:35;2.70;;;1.90;;
39890;SDS011;25564;53.312;9.790;2024-01-07T04:38:07;3.10;;;1.00;;
39890;SDS011;25564;53.312;9.790;2024-01-07T04:40:39;1.97;;;1.20;;
39890;SDS011;25564;53.312;9.790;2024-01-07T04:43:11;1.47;;;0.93;;
39890;SDS011;25564;53.312;9.790;2024-01-07T04:45:42;1.37;;;0.83;;
39890;SDS011;25564;53.312;9.790;2024-01-07T04:48:14;2.47;;;1.50;;
39890;SDS011;25564;53.312;9.790;2024-01-07T04:50:45;2.87;;;1.00;;
39890;SDS011;25564;53.312;9.790;2024-01-07T04:53:17;2.13;;;1.10;;
39890;SDS011;25564;53.312;9.790;2024-01-07T04:55:50;1.83;;;1.10;;
39890;SDS011;25564;53.312;9.790;2024-01-07T04:58:21;3.50;;;1.77;;
39890;SDS011;25564;53.312;9.790;2024-01-07T05:00:53;2.80;;;1.07;;
39890;SDS011;25564;53.312;9.790;2024-01-07T05:03:24;3.07;;;1.00;;
39890;SDS011;25564;53.312;9.790;2024-01-07T05:05:56;2.30;;;1.00;;
39890;SDS011;25564;53.312;9.790;2024-01-07T05:08:27;1.70;;;1.07;;
39890;SDS011;25564;53.312;9.790;2024-01-07T05:10:59;2.30;;;1.20;;
39890;SDS011;25564;53.312;9.790;2024-01-07T05:13:30;3.13;;;1.03;;
39890;SDS011;25564;53.312;9.790;2024-01-07T05:16:02;5.77;;;1.40;;
39890;SDS011;25564;53.312;9.790;2024-01-07T05:18:34;1.73;;;1.07;;
39890;SDS011;25564;53.312;9.790;2024-01-07T05:21:05;2.00;;;1.10;;
39890;SDS011;25564;53.312;9.790;2024-01-07T05:23:39;1.83;;;1.10;;
39890;SDS011;25564;53.312;9.790;2024-01-07T05:26:10;1.63;;;0.90;;
39890;SDS011;25564;53.312;9.790;2024-01-07T05:28:42;3.83;;;1.20;;
39890;SDS011;25564;53.312;9.790;2024-01-07T05:31:14;4.73;;;2.07;;
39890;SDS011;25564;53.312;9.790;2024-01-07T05:33:46;4.57;;;1.70;;
39890;SDS011;25564;53.312;9.790;2024-01-07T05:36:18;3.97;;;1.27;;
39890;SDS011;25564;53.312;9.790;2024-01-07T05:38:50;2.37;;;1.17;;
39890;SDS011;25564;53.312;9.790;2024-01-07T05:41:22;3.57;;;1.40;;
39890;SDS011;25564;53.312;9.790;2024-01-07T05:43:53;3.30;;;1.50;;
39890;SDS011;25564;53.312;9.790;2024-01-07T05:46:25;7.43;;;1.50;;
39890;SDS011;25564;53.312;9.790;2024-01-07T05:48:56;2.80;;;1.17;;
39890;SDS011;25564;53.312;9.790;2024-01-07T05:51:27;2.03;;;1.30;;
39890;SDS011;25564;53.312;9.790;2024-01-07T05:53:59;3.17;;;1.27;;
39890;SDS011;25564;53.312;9.790;2024-01-07T05:56:30;2.77;;;1.30;;
39890;SDS011;25564;53.312;9.790;2024-01-07T05:59:02;2.33;;;1.20;;
39890;SDS011;25564;53.312;9.790;2024-01-07T06:01:33;4.33;;;1.00;;
39890;SDS011;25564;53.312;9.790;2024-01-07T06:04:04;2.13;;;1.00;;
39890;SDS011;25564;53.312;9.790;2024-01-07T06:06:37;2.20;;;1.20;;
39890;SDS011;25564;53.312;9.790;2024-01-07T06:09:08;1.27;;;0.90;;
39890;SDS011;25564;53.312;9.790;2024-01-07T06:11:40;2.00;;;1.30;;
39890;SDS011;25564;53.312;9.790;2024-01-07T06:14:11;2.83;;;1.10;;
39890;SDS011;25564;53.312;9.790;2024-01-07T06:16:42;1.97;;;1.30;;
39890;SDS011;25564;53.312;9.790;2024-01-07T06:19:17;3.47;;;1.30;;
39890;SDS011;25564;53.312;9.790;2024-01-07T06:21:49;3.37;;;0.90;;
39890;SDS011;25564;53.312;9.790;2024-01-07T06:24:20;2.80;;;1.10;;
39890;SDS011;25564;53.312;9.790;2024-01-07T06:26:51;2.73;;;1.50;;
39890;SDS011;25564;53.312;9.790;2024-01-07T06:29:23;4.80;;;1.87;;
39890;SDS011;25564;53.312;9.790;2024-01-07T06:31:54;2.93;;;1.03;;
39890;SDS011;25564;53.312;9.790;2024-01-07T06:34:26;3.33;;;1.37;;
39890;SDS011;25564;53.312;9.790;2024-01-07T06:36:58;1.03;;;0.90;;
39890;SDS011;25564;53.312;9.790;2024-01-07T06:39:29;3.23;;;1.23;;
39890;SDS011;25564;53.312;9.790;2024-01-07T06:42:01;1.63;;;1.07;;
39890;SDS011;25564;53.312;9.790;2024-01-07T06:44:33;2.97;;;1.00;;
39890;SDS011;25564;53.312;9.790;2024-01-07T06:47:04;1.53;;;0.90;;
39890;SDS011;25564;53.312;9.790;2024-01-07T06:49:36;4.30;;;1.07;;
39890;SDS011;25564;53.312;9.790;2024-01-07T06:52:07;1.60;;;1.07;;
39890;SDS011;25564;53.312;9.790;2024-01-07T06:54:39;1.73;;;1.03;;
39890;SDS011;25564;53.312;9.790;2024-01-07T06:57:10;4.50;;;1.40;;
39890;SDS011;25564;53.312;9.790;2024-01-07T06:59:41;1.87;;;0.83;;
39890;SDS011;25564;53.312;9.790;2024-01-07T07:02:13;4.43;;;1.40;;
39890;SDS011;25564;53.312;9.790;2024-01-07T07:04:44;5.33;;;1.43;;
39890;SDS011;25564;53.312;9.790;2024-01-07T07:07:16;3.97;;;1.37;;
39890;SDS011;25564;53.312;9.790;2024-01-07T07:09:48;1.60;;;1.07;;
39890;SDS011;25564;53.312;9.790;2024-01-07T07:12:19;1.77;;;1.20;;
39890;SDS011;25564;53.312;9.790;2024-01-07T07:14:50;2.40;;;1.03;;
39890;SDS011;25564;53.312;9.790;2024-01-07T07:17:22;4.53;;;1.27;;
39890;SDS011;25564;53.312;9.790;2024-01-07T07:19:53;2.07;;;1.20;;
39890;SDS011;25564;53.312;9.790;2024-01-07T07:22:25;2.90;;;1.30;;
39890;SDS011;25564;53.312;9.790;2024-01-07T07:24:56;2.33;;;1.10;;
39890;SDS011;25564;53.312;9.790;2024-01-07T07:27:31;3.27;;;1.43;;
39890;SDS011;25564;53.312;9.790;2024-01-07T07:30:03;1.77;;;1.00;;
39890;SDS011;25564;53.312;9.790;2024-01-07T07:32:38;4.37;;;1.40;;
39890;SDS011;25564;53.312;9.790;2024-01-07T07:35:10;3.10;;;1.67;;
39890;SDS011;25564;53.312;9.790;2024-01-07T07:37:41;5.70;;;1.70;;
39890;SDS011;25564;53.312;9.790;2024-01-07T07:40:13;1.67;;;1.03;;
39890;SDS011;25564;53.312;9.790;2024-01-07T07:42:44;3.30;;;1.23;;
39890;SDS011;25564;53.312;9.790;2024-01-07T07:45:16;3.80;;;1.00;;
39890;SDS011;25564;53.312;9.790;2024-01-07T07:47:47;3.60;;;0.97;;
39890;SDS011;25564;53.312;9.790;2024-01-07T07:50:19;1.67;;;1.07;;
39890;SDS011;25564;53.312;9.790;2024-01-07T07:52:52;1.53;;;0.90;;
39890;SDS011;25564;53.312;9.790;2024-01-07T07:55:24;1.57;;;0.80;;
39890;SDS011;25564;53.312;9.790;2024-01-07T07:57:56;2.57;;;1.07;;
39890;SDS011;25564;53.312;9.790;2024-01-07T08:00:27;2.10;;;1.10;;
39890;SDS011;25564;53.312;9.790;2024-01-07T08:02:59;4.27;;;1.93;;
39890;SDS011;25564;53.312;9.790;2024-01-07T08:05:31;1.50;;;0.90;;
39890;SDS011;25564;53.312;9.790;2024-01-07T08:08:02;3.10;;;1.07;;
39890;SDS011;25564;53.312;9.790;2024-01-07T08:10:35;3.63;;;1.10;;
39890;SDS011;25564;53.312;9.790;2024-01-07T08:13:06;2.60;;;1.27;;
39890;SDS011;25564;53.312;9.790;2024-01-07T08:15:38;2.37;;;1.10;;
39890;SDS011;25564;53.312;9.790;2024-01-07T08:18:09;1.73;;;0.90;;
39890;SDS011;25564;53.312;9.790;2024-01-07T08:20:41;3.33;;;1.77;;
39890;SDS011;25564;53.312;9.790;2024-01-07T08:23:12;4.73;;;2.20;;
39890;SDS011;25564;53.312;9.790;2024-01-07T08:25:44;8.60;;;2.60;;
39890;SDS011;25564;53.312;9.790;2024-01-07T08:28:16;5.57;;;2.60;;
39890;SDS011;25564;53.312;9.790;2024-01-07T08:30:48;16.80;;;6.13;;
39890;SDS011;25564;53.312;9.790;2024-01-07T08:33:22;13.20;;;5.40;;
39890;SDS011;25564;53.312;9.790;2024-01-07T08:35:54;7.10;;;2.67;;
39890;SDS011;25564;53.312;9.790;2024-01-07T08:38:26;3.00;;;1.40;;
39890;SDS011;25564;53.312;9.790;2024-01-07T08:40:57;3.53;;;1.33;;
39890;SDS011;25564;53.312;9.790;2024-01-07T08:43:29;2.97;;;1.90;;
39890;SDS011;25564;53.312;9.790;2024-01-07T08:46:00;4.57;;;1.53;;
39890;SDS011;25564;53.312;9.790;2024-01-07T08:48:32;3.07;;;1.33;;
39890;SDS011;25564;53.312;9.790;2024-01-07T08:51:03;3.60;;;1.73;;
39890;SDS011;25564;53.312;9.790;2024-01-07T08:53:35;5.20;;;2.20;;
39890;SDS011;25564;53.312;9.790;2024-01-07T08:56:06;3.63;;;2.23;;
39890;SDS011;25564;53.312;9.790;2024-01-07T08:58:38;5.47;;;1.53;;
39890;SDS011;25564;53.312;9.790;2024-01-07T09:01:12;4.30;;;1.33;;
39890;SDS011;25564;53.312;9.790;2024-01-07T09:03:45;4.07;;;1.90;;
39890;SDS011;25564;53.312;9.790;2024-01-07T09:06:17;4.17;;;2.20;;
39890;SDS011;25564;53.312;9.790;2024-01-07T09:08:48;7.00;;;1.90;;
39890;SDS011;25564;53.312;9.790;2024-01-07T09:11:20;4.93;;;1.97;;
39890;SDS011;25564;53.312;9.790;2024-01-07T09:13:51;4.60;;;2.40;;
39890;SDS011;25564;53.312;9.790;2024-01-07T09:16:23;5.83;;;2.37;;
39890;SDS011;25564;53.312;9.790;2024-01-07T09:18:54;18.63;;;3.87;;
39890;SDS011;25564;53.312;9.790;2024-01-07T09:21:26;6.07;;;2.13;;
39890;SDS011;25564;53.312;9.790;2024-01-07T09:23:58;5.23;;;2.30;;
39890;SDS011;25564;53.312;9.790;2024-01-07T09:26:30;9.30;;;2.40;;
39890;SDS011;25564;53.312;9.790;2024-01-07T09:29:02;4.70;;;2.00;;
39890;SDS011;25564;53.312;9.790;2024-01-07T09:31:33;5.60;;;2.87;;
39890;SDS011;25564;53.312;9.790;2024-01-07T09:34:05;6.97;;;2.43;;
39890;SDS011;25564;53.312;9.790;2024-01-07T09:36:38;4.27;;;2.33;;
39890;SDS011;25564;53.312;9.790;2024-01-07T09:39:09;6.03;;;2.53;;
39890;SDS011;25564;53.312;9.790;2024-01-07T09:41:41;4.60;;;2.07;;
39890;SDS011;25564;53.312;9.790;2024-01-07T09:44:13;6.00;;;2.57;;
39890;SDS011;25564;53.312;9.790;2024-01-07T09:46:44;6.20;;;2.23;;
39890;SDS011;25564;53.312;9.790;2024-01-07T09:49:20;5.50;;;2.15;;
39890;SDS011;25564;53.312;9.790;2024-01-07T09:51:52;5.03;;;2.40;;
39890;SDS011;25564;53.312;9.790;2024-01-07T09:54:29;5.57;;;2.10;;
39890;SDS011;25564;53.312;9.790;2024-01-07T09:57:02;5.37;;;1.97;;
39890;SDS011;25564;53.312;9.790;2024-01-07T09:59:37;6.40;;;2.90;;
39890;SDS011;25564;53.312;9.790;2024-01-07T10:02:08;7.80;;;2.70;;
39890;SDS011;25564;53.312;9.790;2024-01-07T10:04:41;5.67;;;2.63;;
39890;SDS011;25564;53.312;9.790;2024-01-07T10:07:12;4.73;;;2.20;;
39890;SDS011;25564;53.312;9.790;2024-01-07T10:09:44;8.30;;;2.70;;
39890;SDS011;25564;53.312;9.790;2024-01-07T10:12:15;5.97;;;3.20;;
39890;SDS011;25564;53.312;9.790;2024-01-07T10:14:47;6.47;;;2.70;;
39890;SDS011;25564;53.312;9.790;2024-01-07T10:17:18;6.70;;;2.57;;
39890;SDS011;25564;53.312;9.790;2024-01-07T10:19:50;6.20;;;2.87;;
39890;SDS011;25564;53.312;9.790;2024-01-07T10:22:21;4.10;;;2.60;;
39890;SDS011;25564;53.312;9.790;2024-01-07T10:24:53;5.13;;;2.37;;
39890;SDS011;25564;53.312;9.790;2024-01-07T10:27:24;6.50;;;2.47;;
39890;SDS011;25564;53.312;9.790;2024-01-07T10:29:58;5.97;;;2.90;;
39890;SDS011;25564;53.312;9.790;2024-01-07T10:32:30;6.57;;;2.20;;
39890;SDS011;25564;53.312;9.790;2024-01-07T10:35:02;3.40;;;2.07;;
39890;SDS011;25564;53.312;9.790;2024-01-07T10:37:35;6.83;;;2.40;;
39890;SDS011;25564;53.312;9.790;2024-01-07T10:40:07;7.23;;;2.53;;
39890;SDS011;25564;53.312;9.790;2024-01-07T10:42:39;5.53;;;2.43;;
39890;SDS011;25564;53.312;9.790;2024-01-07T10:45:12;9.03;;;2.83;;
39890;SDS011;25564;53.312;9.790;2024-01-07T10:47:43;4.90;;;2.13;;
39890;SDS011;25564;53.312;9.790;2024-01-07T10:50:22;4.43;;;2.47;;
39890;SDS011;25564;53.312;9.790;2024-01-07T10:52:57;9.03;;;2.10;;
39890;SDS011;25564;53.312;9.790;2024-01-07T10:55:34;6.30;;;2.30;;
39890;SDS011;25564;53.312;9.790;2024-01-07T10:58:07;3.83;;;2.10;;
39890;SDS011;25564;53.312;9.790;2024-01-07T11:00:40;5.67;;;2.43;;
39890;SDS011;25564;53.312;9.790;2024-01-07T11:05:54;4.53;;;2.40;;
39890;SDS011;25564;53.312;9.790;2024-01-07T11:08:43;4.50;;;2.23;;
39890;SDS011;25564;53.312;9.790;2024-01-07T11:11:38;4.23;;;2.50;;
39890;SDS011;25564;53.312;9.790;2024-01-07T11:17:08;4.13;;;1.73;;
39890;SDS011;25564;53.312;9.790;2024-01-07T11:19:49;6.00;;;2.17;;
39890;SDS011;25564;53.312;9.790;2024-01-07T11:22:28;5.27;;;2.43;;
39890;SDS011;25564;53.312;9.790;2024-01-07T11:25:00;5.47;;;2.57;;
39890;SDS011;25564;53.312;9.790;2024-01-07T11:27:33;5.63;;;2.03;;
39890;SDS011;25564;53.312;9.790;2024-01-07T11:30:10;5.53;;;2.43;;
39890;SDS011;25564;53.312;9.790;2024-01-07T11:32:57;7.30;;;1.93;;
39890;SDS011;25564;53.312;9.790;2024-01-07T11:38:31;3.20;;;1.77;;
39890;SDS011;25564;53.312;9.790;2024-01-07T11:41:03;4.47;;;1.63;;
39890;SDS011;25564;53.312;9.790;2024-01-07T11:43:36;5.73;;;1.90;;
39890;SDS011;25564;53.312;9.790;2024-01-07T11:46:08;3.37;;;2.20;;
39890;SDS011;25564;53.312;9.790;2024-01-07T11:48:39;3.13;;;1.80;;
39890;SDS011;25564;53.312;9.790;2024-01-07T11:51:11;5.97;;;2.03;;
39890;SDS011;25564;53.312;9.790;2024-01-07T11:53:45;3.00;;;1.50;;
39890;SDS011;25564;53.312;9.790;2024-01-07T11:58:50;4.37;;;1.50;;
39890;SDS011;25564;53.312;9.790;2024-01-07T12:01:22;2.50;;;1.40;;
39890;SDS011;25564;53.312;9.790;2024-01-07T12:03:53;3.00;;;1.40;;
39890;SDS011;25564;53.312;9.790;2024-01-07T12:06:25;3.90;;;1.40;;
39890;SDS011;25564;53.312;9.790;2024-01-07T12:08:57;3.13;;;1.83;;
39890;SDS011;25564;53.312;9.790;2024-01-07T12:11:28;3.57;;;1.63;;
39890;SDS011;25564;53.312;9.790;2024-01-07T12:14:00;3.03;;;1.40;;
39890;SDS011;25564;53.312;9.790;2024-01-07T12:16:32;4.10;;;1.60;;
39890;SDS011;25564;53.312;9.790;2024-01-07T12:19:04;3.47;;;1.77;;
39890;SDS011;25564;53.312;9.790;2024-01-07T12:21:36;2.50;;;1.60;;
39890;SDS011;25564;53.312;9.790;2024-01-07T12:24:09;2.13;;;1.20;;
39890;SDS011;25564;53.312;9.790;2024-01-07T12:26:40;2.57;;;1.50;;
39890;SDS011;25564;53.312;9.790;2024-01-07T12:29:11;5.77;;;2.00;;
39890;SDS011;25564;53.312;9.790;2024-01-07T12:31:43;3.30;;;1.37;;
39890;SDS011;25564;53.312;9.790;2024-01-07T12:34:17;1.80;;;1.17;;
39890;SDS011;25564;53.312;9.790;2024-01-07T12:36:50;4.07;;;1.60;;
39890;SDS011;25564;53.312;9.790;2024-01-07T12:39:22;2.80;;;1.57;;
39890;SDS011;25564;53.312;9.790;2024-01-07T12:41:58;6.03;;;1.50;;
39890;SDS011;25564;53.312;9.790;2024-01-07T12:44:29;3.93;;;1.03;;
39890;SDS011;25564;53.312;9.790;2024-01-07T12:47:02;1.70;;;1.20;;
39890;SDS011;25564;53.312;9.790;2024-01-07T12:49:34;2.97;;;1.40;;
39890;SDS011;25564;53.312;9.790;2024-01-07T12:52:08;1.70;;;1.23;;
39890;SDS011;25564;53.312;9.790;2024-01-07T12:54:40;3.40;;;1.10;;
39890;SDS011;25564;53.312;9.790;2024-01-07T12:57:12;3.23;;;1.60;;
39890;SDS011;25564;53.312;9.790;2024-01-07T12:59:43;1.90;;;1.33;;
39890;SDS011;25564;53.312;9.790;2024-01-07T13:02:15;3.17;;;1.50;;
39890;SDS011;25564;53.312;9.790;2024-01-07T13:04:46;2.73;;;1.57;;
39890;SDS011;25564;53.312;9.790;2024-01-07T13:07:18;3.30;;;1.73;;
39890;SDS011;25564;53.312;9.790;2024-01-07T13:09:49;1.70;;;0.90;;
39890;SDS011;25564;53.312;9.790;2024-01-07T13:12:20;3.53;;;1.97;;
39890;SDS011;25564;53.312;9.790;2024-01-07T13:14:55;2.27;;;1.30;;
39890;SDS011;25564;53.312;9.790;2024-01-07T13:17:27;2.50;;;1.37;;
39890;SDS011;25564;53.312;9.790;2024-01-07T13:19:59;4.23;;;1.77;;
39890;SDS011;25564;53.312;9.790;2024-01-07T13:22:31;2.60;;;1.53;;
39890;SDS011;25564;53.312;9.790;2024-01-07T13:25:02;4.73;;;1.90;;
39890;SDS011;25564;53.312;9.790;2024-01-07T13:27:34;3.07;;;1.60;;
39890;SDS011;25564;53.312;9.790;2024-01-07T13:30:08;2.53;;;1.30;;
39890;SDS011;25564;53.312;9.790;2024-01-07T13:32:41;3.40;;;1.93;;
39890;SDS011;25564;53.312;9.790;2024-01-07T13:35:12;4.33;;;1.83;;
39890;SDS011;25564;53.312;9.790;2024-01-07T13:37:44;3.43;;;1.77;;
39890;SDS011;25564;53.312;9.790;2024-01-07T13:40:17;6.63;;;2.23;;
39890;SDS011;25564;53.312;9.790;2024-01-07T13:42:49;4.07;;;1.80;;
39890;SDS011;25564;53.312;9.790;2024-01-07T13:45:22;4.37;;;1.97;;
39890;SDS011;25564;53.312;9.790;2024-01-07T13:47:54;3.00;;;1.90;;
39890;SDS011;25564;53.312;9.790;2024-01-07T13:50:26;4.50;;;1.93;;
39890;SDS011;25564;53.312;9.790;2024-01-07T13:52:57;4.07;;;1.90;;
39890;SDS011;25564;53.312;9.790;2024-01-07T13:55:29;3.67;;;1.87;;
39890;SDS011;25564;53.312;9.790;2024-01-07T13:58:00;5.67;;;1.60;;
39890;SDS011;25564;53.312;9.790;2024-01-07T14:00:32;4.33;;;1.90;;
39890;SDS011;25564;53.312;9.790;2024-01-07T14:03:03;5.80;;;1.80;;
39890;SDS011;25564;53.312;9.790;2024-01-07T14:05:35;3.63;;;1.83;;
39890;SDS011;25564;53.312;9.790;2024-01-07T14:08:06;3.40;;;2.07;;
39890;SDS011;25564;53.312;9.790;2024-01-07T14:10:38;5.40;;;2.10;;
39890;SDS011;25564;53.312;9.790;2024-01-07T14:13:11;5.27;;;2.03;;
39890;SDS011;25564;53.312;9.790;2024-01-07T14:15:42;5.10;;;2.00;;
39890;SDS011;25564;53.312;9.790;2024-01-07T14:18:14;3.77;;;1.70;;
39890;SDS011;25564;53.312;9.790;2024-01-07T14:20:48;2.60;;;1.93;;
39890;SDS011;25564;53.312;9.790;2024-01-07T14:23:19;5.87;;;2.27;;
39890;SDS011;25564;53.312;9.790;2024-01-07T14:25:51;5.73;;;2.13;;
39890;SDS011;25564;53.312;9.790;2024-01-07T14:28:22;3.33;;;1.90;;
39890;SDS011;25564;53.312;9.790;2024-01-07T14:30:54;4.10;;;1.70;;
39890;SDS011;25564;53.312;9.790;2024-01-07T14:33:25;4.87;;;2.27;;
39890;SDS011;25564;53.312;9.790;2024-01-07T14:35:57;2.80;;;1.63;;
39890;SDS011;25564;53.312;9.790;2024-01-07T14:38:29;4.63;;;2.00;;
39890;SDS011;25564;53.312;9.790;2024-01-07T14:41:00;3.50;;;1.87;;
39890;SDS011;25564;53.312;9.790;2024-01-07T14:43:31;4.93;;;2.40;;
39890;SDS011;25564;53.312;9.790;2024-01-07T14:46:03;3.10;;;1.70;;
39890;SDS011;25564;53.312;9.790;2024-01-07T14:48:35;5.70;;;2.60;;
39890;SDS011;25564;53.312;9.790;2024-01-07T14:51:07;4.63;;;2.27;;
39890;SDS011;25564;53.312;9.790;2024-01-07T14:53:39;4.07;;;2.13;;
39890;SDS011;25564;53.312;9.790;2024-01-07T14:56:10;3.30;;;1.90;;
39890;SDS011;25564;53.312;9.790;2024-01-07T14:58:42;4.93;;;2.00;;
39890;SDS011;25564;53.312;9.790;2024-01-07T15:01:13;6.20;;;3.00;;
39890;SDS011;25564;53.312;9.790;2024-01-07T15:03:45;7.90;;;3.47;;
39890;SDS011;25564;53.312;9.790;2024-01-07T15:06:17;5.80;;;3.17;;
39890;SDS011;25564;53.312;9.790;2024-01-07T15:08:48;4.77;;;3.10;;
39890;SDS011;25564;53.312;9.790;2024-01-07T15:11:21;4.43;;;2.47;;
39890;SDS011;25564;53.312;9.790;2024-01-07T15:13:53;5.50;;;2.50;;
39890;SDS011;25564;53.312;9.790;2024-01-07T15:16:25;9.00;;;3.53;;
39890;SDS011;25564;53.312;9.790;2024-01-07T15:18:56;4.80;;;2.37;;
39890;SDS011;25564;53.312;9.790;2024-01-07T15:21:28;4.37;;;2.30;;
39890;SDS011;25564;53.312;9.790;2024-01-07T15:23:59;6.37;;;2.93;;
39890;SDS011;25564;53.312;9.790;2024-01-07T15:26:31;6.87;;;3.33;;
39890;SDS011;25564;53.312;9.790;2024-01-07T15:29:05;10.90;;;3.57;;